createdAt,value
2018-12-17T00:00:58.178Z,281.40
2018-12-17T00:03:26.706Z,259.30
2018-12-17T00:05:55.653Z,255.87
2018-12-17T00:08:24.495Z,261.17
2018-12-17T00:10:53.297Z,268.37
2018-12-17T00:13:22.049Z,259.10
2018-12-17T00:15:50.734Z,242.93
2018-12-17T00:18:19.339Z,263.20
2018-12-17T00:20:48.002Z,265.93
2018-12-17T00:23:16.570Z,274.93
2018-12-17T00:25:45.443Z,291.90
2018-12-17T00:28:14.971Z,281.00
2018-12-17T00:30:43.553Z,286.83
2018-12-17T00:33:12.177Z,279.53
2018-12-17T00:35:40.703Z,268.30
2018-12-17T00:38:09.271Z,265.03
2018-12-17T00:40:38.022Z,260.73
2018-12-17T00:43:06.588Z,247.70
2018-12-17T00:45:35.373Z,331.67
2018-12-17T00:48:04.078Z,335.13
2018-12-17T00:50:32.617Z,266.83
2018-12-17T00:53:01.226Z,275.93
2018-12-17T00:55:29.804Z,270.20
2018-12-17T00:57:58.362Z,274.37
2018-12-17T01:00:27.117Z,242.60
2018-12-17T01:02:56.131Z,248.10
2018-12-17T01:05:25.087Z,258.97
2018-12-17T01:07:53.674Z,251.17
2018-12-17T01:10:22.363Z,261.47
2018-12-17T01:12:50.951Z,259.07
2018-12-17T01:15:19.488Z,271.13
2018-12-17T01:17:48.066Z,246.40
2018-12-17T01:20:16.700Z,248.10
2018-12-17T01:22:45.443Z,240.77
2018-12-17T01:25:14.009Z,240.50
2018-12-17T01:27:42.556Z,236.67
2018-12-17T01:30:10.888Z,234.97
2018-12-17T01:32:39.805Z,245.50
2018-12-17T01:35:08.465Z,257.40
2018-12-17T01:37:37.127Z,260.27
2018-12-17T01:40:06.300Z,245.03
2018-12-17T01:42:34.912Z,240.90
2018-12-17T01:45:03.660Z,253.53
2018-12-17T01:47:32.436Z,244.00
2018-12-17T01:50:01.181Z,240.07
2018-12-17T01:52:29.925Z,252.23
2018-12-17T01:54:58.827Z,253.17
2018-12-17T01:57:27.484Z,246.53
2018-12-17T01:59:56.041Z,242.00
2018-12-17T02:02:24.794Z,222.60
2018-12-17T02:04:53.371Z,229.17
2018-12-17T02:07:22.122Z,227.50
2018-12-17T02:09:51.216Z,227.43
2018-12-17T02:12:20.006Z,236.67
2018-12-17T02:14:48.577Z,210.77
2018-12-17T02:17:17.133Z,199.63
2018-12-17T02:19:45.856Z,214.40
2018-12-17T02:22:14.623Z,204.63
2018-12-17T02:24:43.168Z,277.47
2018-12-17T02:27:11.801Z,329.70
2018-12-17T02:29:40.492Z,323.63
2018-12-17T02:32:09.149Z,318.90
2018-12-17T02:34:37.797Z,326.27
2018-12-17T02:37:06.415Z,300.97
2018-12-17T02:39:34.982Z,302.93
2018-12-17T02:42:03.583Z,312.97
2018-12-17T02:44:32.218Z,325.10
2018-12-17T02:47:00.761Z,327.40
2018-12-17T02:49:29.680Z,324.57
2018-12-17T02:51:58.239Z,320.03
2018-12-17T02:54:26.788Z,309.90
2018-12-17T02:56:55.564Z,312.53
2018-12-17T02:59:24.077Z,317.90
2018-12-17T03:01:52.595Z,309.87
2018-12-17T03:04:21.249Z,298.17
2018-12-17T03:06:50.066Z,308.03
2018-12-17T03:09:18.802Z,322.83
2018-12-17T03:11:47.437Z,305.17
2018-12-17T03:14:16.047Z,291.43
2018-12-17T03:16:44.712Z,284.63
2018-12-17T03:19:13.286Z,276.87
2018-12-17T03:21:42.012Z,248.97
2018-12-17T03:24:10.625Z,248.03
2018-12-17T03:26:39.147Z,217.43
2018-12-17T03:29:07.841Z,223.63
2018-12-17T03:31:36.901Z,251.63
2018-12-17T03:34:05.482Z,257.57
2018-12-17T03:36:34.424Z,254.20
2018-12-17T03:39:03.114Z,241.03
2018-12-17T03:41:31.783Z,238.70
2018-12-17T03:44:00.322Z,226.13
2018-12-17T03:46:28.858Z,221.20
2018-12-17T03:48:58.078Z,204.07
2018-12-17T03:51:26.925Z,210.60
2018-12-17T03:53:55.452Z,198.57
2018-12-17T03:56:24.053Z,197.73
2018-12-17T03:58:59.053Z,202.50
2018-12-17T04:01:23.475Z,193.10
2018-12-17T04:03:52.010Z,187.63
2018-12-17T04:06:20.557Z,181.17
2018-12-17T04:08:49.249Z,179.77
2018-12-17T04:11:17.772Z,186.73
2018-12-17T04:13:46.681Z,177.20
2018-12-17T04:16:15.279Z,179.47
2018-12-17T04:18:43.830Z,189.37
2018-12-17T04:21:12.384Z,222.47
2018-12-17T04:23:40.943Z,213.90
2018-12-17T04:26:09.447Z,200.13
2018-12-17T04:28:38.233Z,218.43
2018-12-17T04:31:06.831Z,202.93
2018-12-17T04:33:35.652Z,203.37
2018-12-17T04:36:04.156Z,202.40
2018-12-17T04:38:33.271Z,201.63
2018-12-17T04:41:01.850Z,228.27
2018-12-17T04:43:30.423Z,211.47
2018-12-17T04:45:58.930Z,209.97
2018-12-17T04:48:27.493Z,214.23
2018-12-17T04:50:56.028Z,215.73
2018-12-17T04:53:24.686Z,229.43
2018-12-17T04:55:53.270Z,232.37
2018-12-17T04:58:22.246Z,223.67
2018-12-17T05:00:51.538Z,218.60
2018-12-17T05:03:20.208Z,236.30
2018-12-17T05:05:49.024Z,237.17
2018-12-17T05:08:17.596Z,228.53
2018-12-17T05:10:46.177Z,242.93
2018-12-17T05:13:14.841Z,231.90
2018-12-17T05:15:43.511Z,234.23
2018-12-17T05:18:12.071Z,245.03
2018-12-17T05:20:40.944Z,209.70
2018-12-17T05:23:09.639Z,224.27
2018-12-17T05:25:38.216Z,228.40
2018-12-17T05:28:06.842Z,228.97
2018-12-17T05:30:35.416Z,219.17
2018-12-17T05:33:04.408Z,227.20
2018-12-17T05:35:33.035Z,242.40
2018-12-17T05:38:01.541Z,230.57
2018-12-17T05:40:30.502Z,241.83
2018-12-17T05:42:59.211Z,246.53
2018-12-17T05:45:27.874Z,245.70
2018-12-17T05:47:56.377Z,264.80
2018-12-17T05:50:25.026Z,250.17
2018-12-17T05:52:53.506Z,254.63
2018-12-17T05:55:22.015Z,250.60
2018-12-17T05:57:50.975Z,226.73
2018-12-17T06:00:19.700Z,213.17
2018-12-17T06:02:48.383Z,205.70
2018-12-17T06:05:17.171Z,195.80
2018-12-17T06:07:47.139Z,202.80
2018-12-17T06:10:15.655Z,219.03
2018-12-17T06:12:44.184Z,211.90
2018-12-17T06:15:12.755Z,216.00
2018-12-17T06:17:41.398Z,223.30
2018-12-17T06:20:10.234Z,263.13
2018-12-17T06:22:38.931Z,278.00
2018-12-17T06:25:07.577Z,275.60
2018-12-17T06:27:36.901Z,242.10
2018-12-17T06:30:07.309Z,238.20
2018-12-17T06:32:36.862Z,232.47
2018-12-17T06:35:06.180Z,264.20
2018-12-17T06:37:34.827Z,241.77
2018-12-17T06:40:10.322Z,227.67
2018-12-17T06:42:35.102Z,197.87
2018-12-17T06:45:04.088Z,196.70
2018-12-17T06:47:32.923Z,193.27
2018-12-17T06:50:01.821Z,485.57
2018-12-17T06:52:30.443Z,335.60
2018-12-17T06:54:59.247Z,329.70
2018-12-17T06:57:28.071Z,231.10
2018-12-17T06:59:56.839Z,219.20
2018-12-17T07:02:25.338Z,200.60
2018-12-17T07:04:54.105Z,218.90
2018-12-17T07:07:23.047Z,232.97
2018-12-17T07:09:51.665Z,230.80
2018-12-17T07:12:20.170Z,224.20
2018-12-17T07:14:48.771Z,231.57
2018-12-17T07:17:17.255Z,236.60
2018-12-17T07:19:45.934Z,238.93
2018-12-17T07:22:14.702Z,248.37
2018-12-17T07:24:43.477Z,240.53
2018-12-17T07:27:12.000Z,216.33
2018-12-17T07:29:40.527Z,219.80
2018-12-17T07:32:09.343Z,194.00
2018-12-17T07:34:38.228Z,195.73
2018-12-17T07:37:07.049Z,220.03
2018-12-17T07:39:35.855Z,209.57
2018-12-17T07:42:04.487Z,204.47
2018-12-17T07:44:33.034Z,225.50
2018-12-17T07:47:02.768Z,222.60
2018-12-17T07:49:32.215Z,219.27
2018-12-17T07:52:00.955Z,230.90
2018-12-17T07:54:29.992Z,258.13
2018-12-17T07:56:58.894Z,256.77
2018-12-17T07:59:27.553Z,265.83
2018-12-17T08:01:56.596Z,264.90
2018-12-17T08:04:25.100Z,264.10
2018-12-17T08:06:53.682Z,267.97
2018-12-17T08:09:22.308Z,263.37
2018-12-17T08:11:50.795Z,249.80
2018-12-17T08:14:19.482Z,240.57
2018-12-17T08:16:48.573Z,244.87
2018-12-17T08:19:17.391Z,259.33
2018-12-17T08:21:46.047Z,308.27
2018-12-17T08:24:14.690Z,293.87
2018-12-17T08:26:43.496Z,302.17
2018-12-17T08:29:11.970Z,292.17
2018-12-17T08:31:40.605Z,306.10
2018-12-17T08:34:09.077Z,296.80
2018-12-17T08:36:37.604Z,284.77
2018-12-17T08:39:08.301Z,296.83
2018-12-17T08:41:36.828Z,291.50
2018-12-17T08:44:05.405Z,263.57
2018-12-17T08:46:33.883Z,289.60
2018-12-17T08:49:02.471Z,292.30
2018-12-17T08:51:30.973Z,316.77
2018-12-17T08:53:59.530Z,322.07
2018-12-17T08:56:27.992Z,322.17
2018-12-17T08:58:57.463Z,304.77
2018-12-17T09:01:26.437Z,317.27
2018-12-17T09:03:54.967Z,323.17
2018-12-17T09:06:23.516Z,304.83
2018-12-17T09:08:52.041Z,349.53
2018-12-17T09:11:20.751Z,357.83
2018-12-17T09:13:49.235Z,323.50
2018-12-17T09:16:17.853Z,322.53
2018-12-17T09:18:46.530Z,324.27
2018-12-17T09:21:15.061Z,306.03
2018-12-17T09:23:43.635Z,293.57
2018-12-17T09:26:12.310Z,323.47
2018-12-17T09:28:41.014Z,345.17
2018-12-17T09:31:09.772Z,347.50
2018-12-17T09:33:38.352Z,371.40
2018-12-17T09:36:07.377Z,365.27
2018-12-17T09:38:35.972Z,344.47
2018-12-17T09:41:04.587Z,311.63
2018-12-17T09:43:33.109Z,369.87
2018-12-17T09:46:01.596Z,355.47
2018-12-17T09:48:30.068Z,395.43
2018-12-17T09:50:58.586Z,380.77
2018-12-17T09:53:27.040Z,339.23
2018-12-17T09:55:55.651Z,362.83
2018-12-17T09:58:24.225Z,368.53
2018-12-17T10:00:52.739Z,359.07
2018-12-17T10:03:21.336Z,350.00
2018-12-17T10:05:49.922Z,332.20
2018-12-17T10:08:18.419Z,294.53
2018-12-17T10:10:48.099Z,280.83
2018-12-17T10:13:16.698Z,254.27
2018-12-17T10:15:45.359Z,201.87
2018-12-17T10:18:14.157Z,186.27
2018-12-17T10:20:42.654Z,152.83
2018-12-17T10:23:11.186Z,135.03
2018-12-17T10:25:39.706Z,128.30
2018-12-17T10:28:08.271Z,123.67
2018-12-17T10:30:36.962Z,119.50
2018-12-17T10:33:05.980Z,126.97
2018-12-17T10:35:34.717Z,111.70
2018-12-17T10:38:03.230Z,124.03
2018-12-17T10:40:33.807Z,151.43
2018-12-17T10:43:02.443Z,173.40
2018-12-17T10:45:30.947Z,181.43
2018-12-17T10:47:59.741Z,163.13
2018-12-17T10:50:29.426Z,169.13
2018-12-17T10:52:58.162Z,149.63
2018-12-17T10:55:27.020Z,122.53
2018-12-17T10:57:55.537Z,115.67
2018-12-17T11:00:29.519Z,105.67
2018-12-17T11:03:01.626Z,116.77
2018-12-17T11:05:30.658Z,126.10
2018-12-17T11:07:59.188Z,122.53
2018-12-17T11:10:27.730Z,125.83
2018-12-17T11:12:56.543Z,153.77
2018-12-17T11:15:25.108Z,170.60
2018-12-17T11:17:53.783Z,176.23
2018-12-17T11:20:23.776Z,178.47
2018-12-17T11:22:52.366Z,205.43
2018-12-17T11:25:20.995Z,179.27
2018-12-17T11:27:49.949Z,174.13
2018-12-17T11:30:18.888Z,154.27
2018-12-17T11:32:47.801Z,158.47
2018-12-17T11:35:16.810Z,162.50
2018-12-17T11:37:45.513Z,163.07
2018-12-17T11:40:14.127Z,159.70
2018-12-17T11:42:43.229Z,162.43
2018-12-17T11:45:11.763Z,158.10
2018-12-17T11:47:40.346Z,169.20
2018-12-17T11:50:09.104Z,161.23
2018-12-17T11:52:37.631Z,149.33
2018-12-17T11:55:07.471Z,146.97
2018-12-17T11:58:05.714Z,144.20
2018-12-17T12:00:34.603Z,145.80
2018-12-17T12:03:03.424Z,138.47
2018-12-17T12:05:32.508Z,130.23
2018-12-17T12:08:01.172Z,125.17
2018-12-17T12:10:29.913Z,121.13
2018-12-17T12:12:58.800Z,129.23
2018-12-17T12:15:27.971Z,128.20
2018-12-17T12:17:56.637Z,132.57
2018-12-17T12:20:25.441Z,132.80
2018-12-17T12:22:54.110Z,137.00
2018-12-17T12:25:23.109Z,138.03
2018-12-17T12:27:52.104Z,136.50
2018-12-17T12:30:21.132Z,143.20
2018-12-17T12:32:49.894Z,149.07
2018-12-17T12:35:18.791Z,160.53
2018-12-17T12:37:47.454Z,169.37
2018-12-17T12:40:15.997Z,188.70
2018-12-17T12:42:51.380Z,190.33
2018-12-17T12:45:15.302Z,186.33
2018-12-17T12:47:43.839Z,185.33
2018-12-17T12:50:12.483Z,186.77
2018-12-17T12:52:41.122Z,174.50
2018-12-17T12:55:09.961Z,198.47
2018-12-17T12:57:38.597Z,185.37
2018-12-17T13:00:11.782Z,190.17
2018-12-17T13:02:40.456Z,194.67
2018-12-17T13:05:09.550Z,208.90
2018-12-17T13:07:38.107Z,202.90
2018-12-17T13:10:10.296Z,195.87
2018-12-17T13:12:39.141Z,191.63
2018-12-17T13:15:09.509Z,187.33
2018-12-17T13:17:38.389Z,180.07
2018-12-17T13:20:08.918Z,175.23
2018-12-17T13:22:37.605Z,176.83
2018-12-17T13:25:09.227Z,184.07
2018-12-17T13:27:38.023Z,187.00
2018-12-17T13:30:09.086Z,186.17
2018-12-17T13:32:37.606Z,176.23
2018-12-17T13:35:07.491Z,182.90
2018-12-17T13:37:36.063Z,183.53
2018-12-17T13:40:06.449Z,197.70
2018-12-17T13:42:35.062Z,194.20
2018-12-17T13:45:03.926Z,195.97
2018-12-17T13:47:32.769Z,191.43
2018-12-17T13:50:05.571Z,201.70
2018-12-17T13:52:39.605Z,207.97
2018-12-17T13:55:08.535Z,198.13
2018-12-17T13:57:37.002Z,208.50
2018-12-17T14:00:07.355Z,204.47
2018-12-17T14:02:35.874Z,199.27
2018-12-17T14:05:04.895Z,201.90
2018-12-17T14:07:33.838Z,211.57
2018-12-17T14:10:07.960Z,205.93
2018-12-17T14:12:36.755Z,209.23
2018-12-17T14:15:05.945Z,228.33
2018-12-17T14:17:36.922Z,220.47
2018-12-17T14:20:13.046Z,230.37
2018-12-17T14:22:41.723Z,218.60
2018-12-17T14:25:10.423Z,230.50
2018-12-17T14:27:39.028Z,226.37
2018-12-17T14:30:09.630Z,239.77
2018-12-17T14:32:38.234Z,245.10
2018-12-17T14:35:07.001Z,247.30
2018-12-17T14:37:39.915Z,309.70
2018-12-17T14:40:08.955Z,320.03
2018-12-17T14:42:37.742Z,295.67
2018-12-17T14:45:07.864Z,284.27
2018-12-17T14:47:36.363Z,272.20
2018-12-17T14:50:05.804Z,293.73
2018-12-17T14:52:35.397Z,309.20
2018-12-17T14:55:04.674Z,336.83
2018-12-17T14:57:33.419Z,342.03
2018-12-17T15:00:02.667Z,339.50
2018-12-17T15:02:31.426Z,313.20
2018-12-17T15:05:00.216Z,304.30
2018-12-17T15:07:29.860Z,316.60
2018-12-17T15:09:58.856Z,335.90
2018-12-17T15:12:28.663Z,328.93
2018-12-17T15:14:57.350Z,335.93
2018-12-17T15:17:25.927Z,331.63
2018-12-17T15:19:54.900Z,335.73
2018-12-17T15:22:23.551Z,304.67
2018-12-17T15:24:52.288Z,311.97
2018-12-17T15:27:21.577Z,295.03
2018-12-17T15:29:50.188Z,292.07
2018-12-17T15:32:18.841Z,261.23
2018-12-17T15:34:47.754Z,267.87
2018-12-17T15:37:17.470Z,291.50
2018-12-17T15:39:46.065Z,290.90
2018-12-17T15:42:14.740Z,260.93
2018-12-17T15:44:43.349Z,260.37
2018-12-17T15:47:12.238Z,261.60
2018-12-17T15:49:41.383Z,267.60
2018-12-17T15:52:11.217Z,254.63
2018-12-17T15:54:39.921Z,278.50
2018-12-17T15:57:08.563Z,282.80
2018-12-17T15:59:37.539Z,298.63
2018-12-17T16:02:06.786Z,292.97
2018-12-17T16:04:35.437Z,327.37
2018-12-17T16:07:05.153Z,319.93
2018-12-17T16:09:33.681Z,357.83
2018-12-17T16:12:02.251Z,392.10
2018-12-17T16:14:31.200Z,490.23
2018-12-17T16:16:59.991Z,452.67
2018-12-17T16:19:28.812Z,409.20
2018-12-17T16:21:57.406Z,420.77
2018-12-17T16:24:26.072Z,422.30
2018-12-17T16:26:54.972Z,420.37
2018-12-17T16:29:23.856Z,429.33
2018-12-17T16:31:57.217Z,415.77
2018-12-17T16:34:23.371Z,413.37
2018-12-17T16:36:52.160Z,426.73
2018-12-17T16:39:20.973Z,423.20
2018-12-17T16:41:49.941Z,414.93
2018-12-17T16:44:18.767Z,411.17
2018-12-17T16:46:47.617Z,376.47
2018-12-17T16:49:17.507Z,371.83
2018-12-17T16:51:46.139Z,371.03
2018-12-17T16:54:14.742Z,360.57
2018-12-17T16:56:43.245Z,372.00
2018-12-17T16:59:11.867Z,372.07
2018-12-17T17:01:40.386Z,364.03
2018-12-17T17:04:08.885Z,357.90
2018-12-17T17:06:37.628Z,376.87
2018-12-17T17:09:08.070Z,382.70
2018-12-17T17:11:37.563Z,361.43
2018-12-17T17:14:06.247Z,335.80
2018-12-17T17:16:35.020Z,337.73
2018-12-17T17:19:03.910Z,331.87
2018-12-17T17:21:32.483Z,341.40
2018-12-17T17:24:01.179Z,326.27
2018-12-17T17:26:30.300Z,318.00
2018-12-17T17:28:58.892Z,310.30
2018-12-17T17:31:27.606Z,331.13
2018-12-17T17:33:56.173Z,310.07
2018-12-17T17:36:24.808Z,311.10
2018-12-17T17:38:53.418Z,315.83
2018-12-17T17:41:21.918Z,315.60
2018-12-17T17:43:50.670Z,319.27
2018-12-17T17:46:19.286Z,311.63
2018-12-17T17:48:48.000Z,323.50
2018-12-17T17:51:16.672Z,324.83
2018-12-17T17:53:45.391Z,327.87
2018-12-17T17:56:14.129Z,333.63
2018-12-17T17:58:42.988Z,336.10
2018-12-17T18:01:11.878Z,337.13
2018-12-17T18:03:40.666Z,324.87
2018-12-17T18:06:16.068Z,321.83
2018-12-17T18:08:39.993Z,333.20
2018-12-17T18:11:08.537Z,319.17
2018-12-17T18:13:37.487Z,309.20
2018-12-17T18:16:06.344Z,301.90
2018-12-17T18:18:35.855Z,298.60
2018-12-17T18:21:04.537Z,306.17
2018-12-17T18:23:33.410Z,307.77
2018-12-17T18:26:02.868Z,318.60
2018-12-17T18:28:31.725Z,299.57
2018-12-17T18:31:00.715Z,313.07
2018-12-17T18:33:29.605Z,319.63
2018-12-17T18:35:58.638Z,323.07
2018-12-17T18:38:27.390Z,300.13
2018-12-17T18:40:56.045Z,312.60
2018-12-17T18:43:24.859Z,306.03
2018-12-17T18:45:53.648Z,313.33
2018-12-17T18:48:22.418Z,310.70
2018-12-17T18:50:51.006Z,323.63
2018-12-17T18:53:19.548Z,309.77
2018-12-17T18:55:48.324Z,338.23
2018-12-17T18:58:17.179Z,322.53
2018-12-17T19:00:46.303Z,307.50
2018-12-17T19:03:15.167Z,331.93
2018-12-17T19:05:43.880Z,339.80
2018-12-17T19:08:12.643Z,336.37
2018-12-17T19:10:46.764Z,331.57
2018-12-17T19:13:15.674Z,341.13
2018-12-17T19:15:44.438Z,334.27
2018-12-17T19:18:13.360Z,361.87
2018-12-17T19:20:42.105Z,339.73
2018-12-17T19:23:10.901Z,335.90
2018-12-17T19:25:39.509Z,331.53
2018-12-17T19:28:08.647Z,324.23
2018-12-17T19:30:37.471Z,340.90
2018-12-17T19:33:06.312Z,322.73
2018-12-17T19:35:35.213Z,317.23
2018-12-17T19:38:04.135Z,310.03
2018-12-17T19:40:32.928Z,328.53
2018-12-17T19:43:01.780Z,324.57
2018-12-17T19:45:30.743Z,314.10
2018-12-17T19:47:59.577Z,337.53
2018-12-17T19:50:28.543Z,319.90
2018-12-17T19:52:57.343Z,318.03
2018-12-17T19:55:26.151Z,323.17
2018-12-17T19:57:54.957Z,323.37
2018-12-17T20:00:23.858Z,321.20
2018-12-17T20:02:52.963Z,324.87
2018-12-17T20:05:22.255Z,329.43
2018-12-17T20:07:51.132Z,334.07
2018-12-17T20:10:26.308Z,358.43
2018-12-17T20:12:55.492Z,333.90
2018-12-17T20:15:24.376Z,335.33
2018-12-17T20:17:52.888Z,318.80
2018-12-17T20:20:21.607Z,320.77
2018-12-17T20:22:50.463Z,318.07
2018-12-17T20:25:19.118Z,320.47
2018-12-17T20:27:47.992Z,315.60
2018-12-17T20:30:16.897Z,314.33
2018-12-17T20:32:45.995Z,340.00
2018-12-17T20:35:14.955Z,362.20
2018-12-17T20:37:43.852Z,345.43
2018-12-17T20:40:12.753Z,313.13
2018-12-17T20:42:41.643Z,300.77
2018-12-17T20:45:10.611Z,283.87
2018-12-17T20:47:39.536Z,287.53
2018-12-17T20:50:09.781Z,287.33
2018-12-17T20:52:38.606Z,296.10
2018-12-17T20:55:07.949Z,258.00
2018-12-17T20:57:36.752Z,242.90
2018-12-17T21:00:06.606Z,240.47
2018-12-17T21:02:37.678Z,243.97
2018-12-17T21:05:06.937Z,232.33
2018-12-17T21:07:35.835Z,237.33
2018-12-17T21:10:05.735Z,235.93
2018-12-17T21:12:34.487Z,235.50
2018-12-17T21:15:03.362Z,237.83
2018-12-17T21:17:32.184Z,233.17
2018-12-17T21:20:01.062Z,232.03
2018-12-17T21:22:29.827Z,228.13
2018-12-17T21:24:59.119Z,230.43
2018-12-17T21:27:28.147Z,249.33
2018-12-17T21:29:56.907Z,260.73
2018-12-17T21:32:25.798Z,263.33
2018-12-17T21:34:54.832Z,242.17
2018-12-17T21:37:23.926Z,212.50
2018-12-17T21:39:52.530Z,214.80
2018-12-17T21:42:21.490Z,221.67
2018-12-17T21:44:50.482Z,209.53
2018-12-17T21:47:19.262Z,220.00
2018-12-17T21:49:48.131Z,211.87
2018-12-17T21:52:16.964Z,206.43
2018-12-17T21:54:45.808Z,213.33
2018-12-17T21:57:14.619Z,221.77
2018-12-17T21:59:43.538Z,211.17
2018-12-17T22:02:13.285Z,215.90
2018-12-17T22:04:42.482Z,208.13
2018-12-17T22:07:11.567Z,196.03
2018-12-17T22:09:40.721Z,193.90
2018-12-17T22:12:10.309Z,197.27
2018-12-17T22:14:39.829Z,189.67
2018-12-17T22:17:09.471Z,187.03
2018-12-17T22:19:38.596Z,186.17
2018-12-17T22:22:08.249Z,185.20
2018-12-17T22:24:38.487Z,187.80
2018-12-17T22:27:09.123Z,193.80
2018-12-17T22:29:37.862Z,188.57
2018-12-17T22:32:06.746Z,192.37
2018-12-17T22:34:35.478Z,195.80
2018-12-17T22:37:04.295Z,198.00
2018-12-17T22:39:33.084Z,191.07
2018-12-17T22:42:01.749Z,205.13
2018-12-17T22:44:30.580Z,200.20
2018-12-17T22:46:59.604Z,195.97
2018-12-17T22:49:28.650Z,186.13
2018-12-17T22:51:57.266Z,196.13
2018-12-17T22:54:25.839Z,196.97
2018-12-17T22:56:54.443Z,190.63
2018-12-17T22:59:23.148Z,195.37
2018-12-17T23:01:51.852Z,192.90
2018-12-17T23:04:20.702Z,171.83
2018-12-17T23:06:49.404Z,187.50
2018-12-17T23:09:17.018Z,191.57
2018-12-17T23:12:02.413Z,176.67
2018-12-17T23:14:42.277Z,176.43
2018-12-17T23:17:22.245Z,169.67
2018-12-17T23:19:50.867Z,193.70
2018-12-17T23:22:21.143Z,182.33
2018-12-17T23:24:50.104Z,175.33
2018-12-17T23:27:18.895Z,167.80
2018-12-17T23:29:47.680Z,162.97
2018-12-17T23:32:16.269Z,155.07
2018-12-17T23:34:44.847Z,155.47
2018-12-17T23:37:13.600Z,158.67
2018-12-17T23:39:42.271Z,141.20
2018-12-17T23:42:11.110Z,155.00
2018-12-17T23:44:39.852Z,145.83
2018-12-17T23:47:08.550Z,139.30
2018-12-17T23:49:37.379Z,136.60
2018-12-17T23:52:06.023Z,134.60
2018-12-17T23:54:34.777Z,139.33
2018-12-17T23:57:03.632Z,133.50
2018-12-17T23:59:32.285Z,126.20
